Time;durP1;ratioP1;P1;durP2;ratioP2;P2;SDS_P1;SDS_P2;PMS_P1;PMS_P2;Temp;Humidity;BMP_temperature;BMP_pressure;BME280_temperature;BME280_humidity;BME280_pressure;Samples;Min_cycle;Max_cycle;Signal;HPM_P1;HPM_P2
2022/10/19 00:01:35;;;;;;;2.72;1.42;;;;;;;17.62;48.50;102588.22;5074416;28;20570;-67
2022/10/19 00:04:01;;;;;;;5.20;1.52;;;;;;;17.57;47.45;102582.31;5060616;28;20060;-67
2022/10/19 00:06:29;;;;;;;4.57;1.75;;;;;;;17.54;47.70;102588.00;5054479;28;20025;-66
2022/10/19 00:09:10;;;;;;;2.75;1.33;;;;;;;17.55;47.45;102578.91;5053657;28;20025;-67
2022/10/19 00:11:38;;;;;;;1.60;1.50;;;;;;;17.51;47.77;102574.69;5036495;28;20022;-67
2022/10/19 00:14:04;;;;;;;4.43;2.10;;;;;;;17.50;47.99;102580.25;5054229;28;20102;-67
2022/10/19 00:16:34;;;;;;;4.10;1.73;;;;;;;17.47;47.17;102581.38;5054194;28;20040;-67
2022/10/19 00:19:01;;;;;;;3.05;1.67;;;;;;;17.42;47.68;102567.34;5036389;28;20119;-67
2022/10/19 00:21:26;;;;;;;7.35;1.73;;;;;;;17.42;48.53;102578.19;5054058;28;20045;-67
2022/10/19 00:23:52;;;;;;;2.78;1.60;;;;;;;17.40;48.56;102574.75;5036305;28;20037;-67
2022/10/19 00:26:17;;;;;;;2.45;2.13;;;;;;;17.37;47.83;102562.31;5036413;28;20111;-66
2022/10/19 00:28:43;;;;;;;2.05;1.73;;;;;;;17.32;48.41;102561.84;5036108;28;20029;-66
2022/10/19 00:31:11;;;;;;;3.97;1.80;;;;;;;17.32;48.46;102564.56;5035976;28;20059;-67
2022/10/19 00:33:37;;;;;;;2.55;1.80;;;;;;;17.27;48.15;102565.94;5019576;28;20386;-66
2022/10/19 00:36:02;;;;;;;6.00;2.20;;;;;;;17.25;48.01;102566.06;5053809;28;20100;-69
2022/10/19 00:38:28;;;;;;;2.97;1.85;;;;;;;17.24;48.87;102564.38;5036115;28;20029;-67
2022/10/19 00:40:53;;;;;;;5.43;1.52;;;;;;;17.23;47.64;102567.19;5053827;28;20028;-66
2022/10/19 00:43:25;;;;;;;4.63;1.45;;;;;;;17.20;48.33;102570.16;5035954;28;20059;-66
2022/10/19 00:45:51;;;;;;;1.75;1.20;;;;;;;17.15;48.68;102569.69;5036280;28;20185;-67
2022/10/19 00:48:22;;;;;;;3.60;1.25;;;;;;;17.14;47.75;102573.41;5035989;28;20017;-67
2022/10/19 00:50:49;;;;;;;3.08;1.90;;;;;;;17.12;47.68;102564.53;5035811;28;20021;-67
2022/10/19 00:53:14;;;;;;;1.88;1.10;;;;;;;17.08;47.75;102566.66;5035800;28;20505;-67
2022/10/19 00:55:40;;;;;;;4.00;1.63;;;;;;;17.05;47.32;102569.63;5053522;28;20059;-67
2022/10/19 00:58:06;;;;;;;2.20;1.65;;;;;;;17.02;47.65;102575.28;5019319;28;20045;-67
2022/10/19 01:00:32;;;;;;;1.80;1.30;;;;;;;17.00;47.38;102571.00;5035878;28;20551;-67
2022/10/19 01:02:58;;;;;;;4.55;1.65;;;;;;;16.98;48.03;102572.94;5053476;28;20061;-67
2022/10/19 01:05:24;;;;;;;4.63;1.95;;;;;;;16.97;47.90;102565.81;5053584;28;20060;-67
2022/10/19 01:07:50;;;;;;;4.30;1.70;;;;;;;16.96;47.73;102580.34;5035660;28;20060;-67
2022/10/19 01:10:15;;;;;;;8.45;1.52;;;;;;;16.89;48.21;102567.31;5035566;28;20108;-67
2022/10/19 01:12:59;;;;;;;6.00;1.35;;;;;;;16.91;48.67;102574.44;5035397;28;20474;-67
2022/10/19 01:15:35;;;;;;;2.97;1.30;;;;;;;16.86;47.56;102554.03;5035351;28;20029;-67
2022/10/19 01:18:32;;;;;;;6.50;2.00;;;;;;;16.83;47.07;102553.44;5035433;28;20025;-67
2022/10/19 01:21:44;;;;;;;1.77;1.50;;;;;;;16.79;48.86;102551.97;5037189;28;20406;-67
2022/10/19 01:24:27;;;;;;;9.20;1.65;;;;;;;16.75;47.32;102554.06;4956346;28;20400;-67
2022/10/19 01:27:25;;;;;;;4.15;1.92;;;;;;;16.72;48.87;102551.59;4940299;28;20477;-67
2022/10/19 01:29:50;;;;;;;1.83;1.50;;;;;;;16.68;47.79;102550.16;4940263;28;20035;-66
2022/10/19 01:32:47;;;;;;;1.42;1.33;;;;;;;16.63;47.86;102538.84;4972374;28;20026;-67
2022/10/19 01:35:25;;;;;;;1.95;1.40;;;;;;;16.62;47.60;102539.81;4972410;28;20085;-67
2022/10/19 01:38:19;;;;;;;2.53;1.40;;;;;;;16.60;48.33;102536.41;4972405;28;20038;-67
2022/10/19 01:40:49;;;;;;;7.97;1.80;;;;;;;16.61;48.02;102538.09;4972293;28;20073;-67
2022/10/19 01:43:32;;;;;;;2.92;1.30;;;;;;;16.63;47.33;102536.16;4956143;28;20393;-67
2022/10/19 01:46:05;;;;;;;5.40;2.03;;;;;;;16.64;47.91;102532.44;4956155;28;20034;-66
2022/10/19 01:48:34;;;;;;;3.63;1.90;;;;;;;16.62;48.32;102530.84;4956174;28;20035;-67
2022/10/19 01:51:01;;;;;;;6.55;1.98;;;;;;;16.64;47.20;102537.84;4956181;28;20034;-67
2022/10/19 01:53:29;;;;;;;3.45;1.77;;;;;;;16.58;48.39;102522.13;4972235;28;20042;-67
2022/10/19 01:55:54;;;;;;;3.80;1.60;;;;;;;16.66;47.50;102529.63;5032178;28;20086;-68
2022/10/19 01:58:26;;;;;;;3.28;2.25;;;;;;;16.67;47.69;102529.47;5035075;28;20045;-67
2022/10/19 02:00:52;;;;;;;7.03;2.15;;;;;;;16.68;48.30;102523.09;5034941;28;20049;-67
2022/10/19 02:03:18;;;;;;;3.75;1.50;;;;;;;16.68;48.52;102519.53;5035149;28;20028;-67
2022/10/19 02:05:44;;;;;;;5.25;1.63;;;;;;;16.69;48.88;102526.66;5035196;28;20108;-67
2022/10/19 02:08:12;;;;;;;5.93;1.42;;;;;;;16.62;48.48;102517.31;5035039;28;20048;-67
2022/10/19 02:10:40;;;;;;;4.90;1.63;;;;;;;16.61;48.47;102521.88;5018497;28;20021;-67
2022/10/19 02:13:07;;;;;;;3.25;1.48;;;;;;;16.57;47.08;102515.00;5052695;28;20029;-67
2022/10/19 02:15:34;;;;;;;2.75;1.60;;;;;;;16.54;48.69;102515.25;5052703;28;20035;-67
2022/10/19 02:18:00;;;;;;;3.95;1.73;;;;;;;16.51;47.36;102512.75;5034748;28;20025;-67
2022/10/19 02:20:27;;;;;;;2.92;1.60;;;;;;;16.46;47.48;102512.28;5034852;28;20032;-67
2022/10/19 02:22:52;;;;;;;6.80;1.90;;;;;;;16.47;48.92;102514.00;5052809;28;20028;-67
2022/10/19 02:25:18;;;;;;;3.92;1.40;;;;;;;16.46;47.38;102501.47;5034947;28;20037;-67
2022/10/19 02:27:43;;;;;;;3.70;1.75;;;;;;;16.46;47.47;102501.47;5018510;28;20119;-67
2022/10/19 02:30:10;;;;;;;3.85;1.70;;;;;;;16.46;47.58;102506.88;5034898;28;20029;-67
2022/10/19 02:32:35;;;;;;;16.25;2.03;;;;;;;16.45;48.08;102494.31;5038394;28;20029;-67
2022/10/19 02:35:01;;;;;;;6.10;2.00;;;;;;;16.45;47.87;102499.75;5038507;28;20025;-67
2022/10/19 02:37:26;;;;;;;8.52;1.88;;;;;;;16.46;48.03;102500.59;5038249;28;20120;-67
2022/10/19 02:39:52;;;;;;;3.95;1.70;;;;;;;16.43;47.68;102501.72;5056450;28;20059;-67
2022/10/19 02:42:38;;;;;;;4.88;2.05;;;;;;;16.39;47.71;102500.25;5038152;28;20029;-69
2022/10/19 02:45:26;;;;;;;2.63;1.73;;;;;;;16.37;47.41;102488.69;5021738;28;20482;-67
2022/10/19 02:47:55;;;;;;;6.68;2.05;;;;;;;16.34;48.24;102486.25;5038261;28;20101;-67
2022/10/19 02:50:21;;;;;;;6.57;2.22;;;;;;;16.35;48.26;102482.56;5038377;28;20032;-67
2022/10/19 02:52:46;;;;;;;4.90;1.65;;;;;;;16.37;47.95;102477.88;5038018;28;20385;-67
2022/10/19 02:55:12;;;;;;;4.25;2.00;;;;;;;16.38;47.39;102476.91;5055727;28;20104;-67
2022/10/19 02:57:37;;;;;;;6.13;2.22;;;;;;;16.41;47.65;102476.66;5055693;28;20075;-67
2022/10/19 03:00:07;;;;;;;2.38;1.98;;;;;;;16.43;47.69;102474.66;5055555;28;20045;-67
2022/10/19 03:02:32;;;;;;;7.13;2.08;;;;;;;16.45;47.67;102467.28;5037850;28;20036;-66
2022/10/19 03:04:57;;;;;;;4.78;2.25;;;;;;;16.47;48.03;102480.69;5055640;28;20025;-67
2022/10/19 03:07:23;;;;;;;5.13;2.13;;;;;;;16.47;48.41;102465.28;5055609;28;20078;-66
2022/10/19 03:09:48;;;;;;;4.53;2.42;;;;;;;16.50;48.37;102475.03;5055771;28;20504;-67
2022/10/19 03:12:14;;;;;;;5.72;2.38;;;;;;;16.50;49.05;102480.44;5037924;28;20394;-67
2022/10/19 03:14:40;;;;;;;3.42;2.03;;;;;;;16.48;48.42;102480.56;5055448;28;20025;-67
2022/10/19 03:17:05;;;;;;;4.47;1.88;;;;;;;16.43;47.66;102471.97;5055459;28;20029;-67
2022/10/19 03:19:31;;;;;;;3.65;1.50;;;;;;;16.43;48.30;102474.66;5021211;28;20032;-67
2022/10/19 03:21:56;;;;;;;2.83;1.77;;;;;;;16.35;47.99;102463.63;5037496;28;20521;-67
2022/10/19 03:24:22;;;;;;;4.78;1.80;;;;;;;16.35;48.27;102471.75;5037596;28;20171;-67
2022/10/19 03:26:48;;;;;;;5.53;1.95;;;;;;;16.22;48.11;102454.78;5021075;28;20391;-68
2022/10/19 03:29:13;;;;;;;5.57;1.90;;;;;;;16.29;48.64;102472.25;5021126;28;20033;-67
2022/10/19 03:31:39;;;;;;;5.75;1.90;;;;;;;16.23;47.97;102467.34;5037404;28;20456;-67
2022/10/19 03:34:04;;;;;;;2.42;1.80;;;;;;;16.17;47.71;102466.00;5055088;28;20060;-67
2022/10/19 03:36:32;;;;;;;5.68;2.08;;;;;;;16.21;48.22;102472.00;5020521;28;20025;-67
2022/10/19 03:38:59;;;;;;;10.85;2.33;;;;;;;16.20;47.69;102473.00;5055075;28;20096;-67
2022/10/19 03:41:27;;;;;;;9.02;2.08;;;;;;;16.19;47.46;102469.41;5020327;28;20025;-67
2022/10/19 03:43:52;;;;;;;5.85;2.00;;;;;;;16.18;47.83;102465.00;5054350;28;20036;-67
2022/10/19 03:46:19;;;;;;;3.97;2.10;;;;;;;16.10;47.91;102463.91;5037097;28;20033;-67
2022/10/19 03:48:44;;;;;;;5.63;1.90;;;;;;;16.13;47.82;102466.38;5054870;28;20031;-67
2022/10/19 03:51:13;;;;;;;10.55;2.50;;;;;;;16.08;48.44;102469.44;5054821;28;20107;-67
2022/10/19 03:53:39;;;;;;;5.60;1.65;;;;;;;16.08;47.20;102474.00;5054804;28;20108;-67
2022/10/19 03:56:11;;;;;;;5.85;2.10;;;;;;;16.03;48.58;102476.19;5054601;28;20112;-67
2022/10/19 03:58:37;;;;;;;7.28;2.75;;;;;;;16.01;48.48;102472.75;5036767;28;20031;-67
2022/10/19 04:01:11;;;;;;;3.45;2.50;;;;;;;15.98;48.64;102467.59;5033601;28;20136;-67
2022/10/19 04:03:37;;;;;;;6.47;2.38;;;;;;;15.92;47.70;102452.75;5016846;28;20029;-67
2022/10/19 04:06:04;;;;;;;6.03;2.20;;;;;;;15.96;48.41;102464.19;5033398;28;20025;-67
2022/10/19 04:08:30;;;;;;;12.48;3.00;;;;;;;15.97;48.63;102460.50;5033343;28;20071;-67
2022/10/19 04:11:03;;;;;;;8.40;2.20;;;;;;;15.96;48.85;102459.63;5033110;28;20063;-67
2022/10/19 04:13:29;;;;;;;6.35;2.45;;;;;;;16.01;48.63;102465.53;5033383;28;20132;-67
2022/10/19 04:15:55;;;;;;;9.38;2.90;;;;;;;16.01;48.22;102456.53;5016982;28;20475;-67
2022/10/19 04:18:20;;;;;;;6.22;2.85;;;;;;;16.06;48.89;102459.72;5034304;28;20403;-67
2022/10/19 04:20:45;;;;;;;8.23;2.53;;;;;;;16.09;48.86;102464.88;5034324;28;20032;-67
2022/10/19 04:23:11;;;;;;;3.78;1.98;;;;;;;16.12;47.99;102462.81;5033275;28;20482;-67
2022/10/19 04:25:36;;;;;;;8.48;3.22;;;;;;;16.15;48.64;102470.66;5033092;28;20033;-67
2022/10/19 04:28:02;;;;;;;13.40;2.90;;;;;;;16.19;49.10;102472.13;5000024;28;20032;-67
2022/10/19 04:30:27;;;;;;;7.72;2.70;;;;;;;16.22;48.14;102471.00;5032985;28;20398;-67
2022/10/19 04:32:52;;;;;;;8.27;2.60;;;;;;;16.25;48.62;102473.47;5034230;28;20029;-67
2022/10/19 04:35:18;;;;;;;6.50;2.53;;;;;;;16.24;49.29;102458.25;5034031;28;20025;-67
2022/10/19 04:37:43;;;;;;;5.88;2.53;;;;;;;16.26;49.23;102461.69;5033970;28;20029;-67
2022/10/19 04:40:09;;;;;;;11.25;2.75;;;;;;;16.32;47.95;102466.59;5033916;28;20022;-67
2022/10/19 04:42:35;;;;;;;6.43;2.58;;;;;;;16.35;49.49;102465.47;5034248;28;20125;-67
2022/10/19 04:45:00;;;;;;;5.32;2.92;;;;;;;16.35;49.04;102471.75;5034245;28;20107;-67
2022/10/19 04:47:27;;;;;;;7.25;2.97;;;;;;;16.36;49.08;102475.31;5016132;28;20033;-67
2022/10/19 04:49:53;;;;;;;6.55;2.67;;;;;;;16.36;48.70;102473.44;5033822;28;20116;-67
2022/10/19 04:52:18;;;;;;;11.73;2.83;;;;;;;16.37;48.47;102477.88;5034149;28;20057;-67
2022/10/19 04:54:45;;;;;;;7.28;2.45;;;;;;;16.38;48.96;102473.34;5033012;28;20083;-67
2022/10/19 04:57:10;;;;;;;4.70;2.50;;;;;;;16.35;49.21;102471.75;5033712;28;20534;-67
2022/10/19 04:59:35;;;;;;;8.55;3.13;;;;;;;16.33;48.40;102460.19;5032414;28;20120;-67
2022/10/19 05:02:01;;;;;;;7.38;2.85;;;;;;;16.34;48.06;102459.19;5052099;28;20128;-67
2022/10/19 05:04:26;;;;;;;4.30;3.03;;;;;;;16.39;48.60;102464.25;5053528;28;20036;-67
2022/10/19 05:06:51;;;;;;;9.30;3.25;;;;;;;16.35;49.00;102463.63;5053519;28;20417;-67
2022/10/19 05:09:17;;;;;;;8.20;2.97;;;;;;;16.35;48.50;102460.94;5053373;28;20029;-67
2022/10/19 05:11:42;;;;;;;7.03;3.25;;;;;;;16.35;48.90;102468.16;5035609;28;20501;-66
2022/10/19 05:14:08;;;;;;;6.68;3.00;;;;;;;16.33;49.72;102469.16;5053362;28;20029;-67
2022/10/19 05:16:33;;;;;;;8.65;3.00;;;;;;;16.31;49.34;102470.25;5035595;28;20074;-67
2022/10/19 05:18:59;;;;;;;5.18;2.67;;;;;;;16.30;49.28;102463.16;5053595;28;20029;-67
2022/10/19 05:21:26;;;;;;;7.13;3.00;;;;;;;16.26;48.34;102449.03;5053211;28;20440;-67
2022/10/19 05:23:52;;;;;;;6.18;2.55;;;;;;;16.28;48.50;102454.28;5019125;28;20025;-67
2022/10/19 05:26:19;;;;;;;6.53;2.67;;;;;;;16.26;49.46;102454.44;5019023;28;20017;-67
2022/10/19 05:28:55;;;;;;;6.72;3.45;;;;;;;16.22;48.49;102443.97;5053601;28;20025;-67
2022/10/19 05:31:22;;;;;;;4.32;2.58;;;;;;;16.22;48.61;102449.38;5035689;28;20024;-66
2022/10/19 05:33:47;;;;;;;7.82;3.08;;;;;;;16.15;49.15;102437.34;5018786;28;20518;-69
2022/10/19 05:36:24;;;;;;;8.68;3.13;;;;;;;16.20;48.52;102443.25;5035131;28;20029;-66
2022/10/19 05:38:51;;;;;;;13.73;2.80;;;;;;;16.19;48.29;102447.78;5035016;28;20029;-66
2022/10/19 05:41:18;;;;;;;11.85;3.20;;;;;;;16.15;48.47;102429.25;5053053;28;20387;-67
2022/10/19 05:43:44;;;;;;;4.60;2.85;;;;;;;16.17;49.54;102447.06;5035108;28;20086;-68
2022/10/19 05:46:12;;;;;;;9.13;3.25;;;;;;;16.17;48.76;102440.78;5035143;28;20110;-66
2022/10/19 05:48:38;;;;;;;6.68;3.33;;;;;;;16.18;48.23;102447.94;5053057;28;20497;-66
2022/10/19 05:51:05;;;;;;;12.43;3.25;;;;;;;16.16;48.62;102453.44;5052944;28;20049;-66
2022/10/19 05:53:31;;;;;;;11.90;3.70;;;;;;;16.17;49.14;102451.59;5035109;28;20036;-66
2022/10/19 05:55:57;;;;;;;11.68;3.42;;;;;;;16.15;48.97;102449.03;5035037;28;20021;-72
2022/10/19 05:58:22;;;;;;;6.80;3.38;;;;;;;16.17;49.97;102435.38;5052864;28;20470;-66
2022/10/19 06:00:56;;;;;;;8.55;4.05;;;;;;;16.16;48.60;102434.50;5035049;28;20068;-66
2022/10/19 06:03:22;;;;;;;7.00;3.35;;;;;;;16.16;49.64;102430.97;5052889;28;20064;-67
2022/10/19 06:05:48;;;;;;;7.75;3.33;;;;;;;16.16;48.88;102420.16;5053906;28;20056;-67
2022/10/19 06:08:14;;;;;;;5.72;3.15;;;;;;;16.16;48.72;102422.88;5056630;28;20078;-67
2022/10/19 06:10:40;;;;;;;7.05;2.90;;;;;;;16.14;49.58;102416.69;5056603;28;20120;-67
2022/10/19 06:13:05;;;;;;;10.20;3.20;;;;;;;16.15;49.25;102418.44;5056736;28;20167;-66
2022/10/19 06:15:35;;;;;;;10.10;3.72;;;;;;;16.08;49.88;102407.25;5056520;28;20040;-67
2022/10/19 06:18:03;;;;;;;9.32;3.10;;;;;;;16.13;49.33;102420.41;5038867;28;20033;-66
2022/10/19 06:20:28;;;;;;;6.75;4.07;;;;;;;16.14;49.57;102414.00;5038597;28;20478;-67
2022/10/19 06:22:53;;;;;;;9.10;3.85;;;;;;;16.15;49.65;102415.72;5056626;28;20028;-67
2022/10/19 06:25:19;;;;;;;6.03;2.72;;;;;;;16.14;48.99;102417.56;5056496;28;20028;-67
2022/10/19 06:27:44;;;;;;;7.50;3.28;;;;;;;16.16;48.68;102429.09;5056481;28;20113;-66
2022/10/19 06:30:10;;;;;;;7.60;2.67;;;;;;;16.17;49.67;102427.28;5056256;28;20031;-66
2022/10/19 06:32:35;;;;;;;10.43;3.05;;;;;;;16.19;50.00;102411.81;5056547;28;20039;-66
2022/10/19 06:35:01;;;;;;;7.32;4.13;;;;;;;16.25;49.65;102413.97;5056165;28;20025;-66
2022/10/19 06:37:26;;;;;;;6.47;3.20;;;;;;;16.27;48.81;102415.56;5056135;28;20035;-67
2022/10/19 06:39:51;;;;;;;9.10;3.97;;;;;;;16.33;48.77;102425.03;5056374;28;20425;-67
2022/10/19 06:42:17;;;;;;;12.02;3.70;;;;;;;16.41;49.85;102427.97;5056122;28;20033;-67
2022/10/19 06:44:42;;;;;;;10.77;3.75;;;;;;;16.47;49.34;102424.72;5056204;28;20064;-66
2022/10/19 06:47:07;;;;;;;7.78;3.35;;;;;;;16.55;49.33;102430.41;5056092;28;20021;-67
2022/10/19 06:49:34;;;;;;;7.72;3.20;;;;;;;16.63;49.28;102436.03;5038004;28;20039;-67
2022/10/19 06:52:00;;;;;;;6.93;3.03;;;;;;;16.70;49.07;102445.34;5038707;28;20041;-66
2022/10/19 06:54:26;;;;;;;6.57;3.20;;;;;;;16.79;49.04;102432.88;5055873;28;20047;-67
2022/10/19 06:56:51;;;;;;;7.30;3.17;;;;;;;16.91;48.75;102441.81;5055744;28;20025;-67
2022/10/19 06:59:16;;;;;;;10.13;3.03;;;;;;;16.99;49.20;102433.88;5055755;28;20068;-66
2022/10/19 07:01:42;;;;;;;8.75;3.67;;;;;;;17.12;47.85;102439.97;5037752;28;20434;-67
2022/10/19 07:04:07;;;;;;;6.28;3.20;;;;;;;17.25;48.44;102446.88;5055705;28;20106;-67
2022/10/19 07:06:33;;;;;;;10.93;3.75;;;;;;;17.36;48.74;102451.41;5055587;28;20532;-66
2022/10/19 07:08:58;;;;;;;5.65;2.90;;;;;;;17.47;48.43;102451.31;5037772;28;20044;-67
2022/10/19 07:11:23;;;;;;;8.55;3.15;;;;;;;17.57;47.86;102446.84;5055559;28;20075;-67
2022/10/19 07:13:49;;;;;;;15.10;3.92;;;;;;;17.64;48.50;102437.19;5055496;28;20754;-67
2022/10/19 07:16:17;;;;;;;7.78;3.15;;;;;;;17.77;48.61;102447.78;5037452;28;20033;-66
2022/10/19 07:18:42;;;;;;;7.90;3.22;;;;;;;17.86;47.96;102447.84;5037738;28;20409;-67
2022/10/19 07:21:10;;;;;;;13.13;4.00;;;;;;;17.96;48.67;102442.44;5055534;28;20025;-67
2022/10/19 07:23:37;;;;;;;9.80;3.83;;;;;;;18.02;48.57;102437.31;5055471;28;20424;-67
2022/10/19 07:26:11;;;;;;;5.13;3.55;;;;;;;18.15;48.00;102437.06;5020790;28;20116;-66
2022/10/19 07:28:37;;;;;;;9.23;4.03;;;;;;;18.26;48.26;102436.06;5055322;28;20075;-67
2022/10/19 07:31:08;;;;;;;8.68;3.20;;;;;;;18.36;48.45;102443.25;5037287;28;20099;-67
2022/10/19 07:33:34;;;;;;;5.30;2.90;;;;;;;18.45;48.07;102434.25;5037394;28;20025;-67
2022/10/19 07:36:01;;;;;;;5.97;3.22;;;;;;;18.55;48.55;102439.75;5037322;28;20131;-67
2022/10/19 07:38:28;;;;;;;11.30;3.33;;;;;;;18.64;48.29;102422.63;5055144;28;20482;-67
2022/10/19 07:41:19;;;;;;;10.32;3.60;;;;;;;18.76;48.00;102424.16;5055024;28;20497;-67
2022/10/19 07:43:45;;;;;;;9.43;3.75;;;;;;;18.91;47.72;102414.59;5054290;28;20045;-67
2022/10/19 07:46:13;;;;;;;9.98;3.33;;;;;;;19.06;48.10;102415.88;5054850;28;20545;-66
2022/10/19 07:48:38;;;;;;;7.28;3.90;;;;;;;19.19;47.82;102410.97;5037072;28;20397;-66
2022/10/19 07:51:06;;;;;;;6.43;2.75;;;;;;;19.31;47.76;102405.38;5037056;28;20021;-67
2022/10/19 07:53:33;;;;;;;5.28;3.05;;;;;;;19.47;47.81;102411.06;5054855;28;20057;-66
2022/10/19 07:56:08;;;;;;;10.38;3.53;;;;;;;19.59;46.76;102396.31;5054686;28;20021;-66
2022/10/19 07:58:35;;;;;;;6.93;3.67;;;;;;;19.75;47.22;102396.50;5054686;28;20040;-67
2022/10/19 08:01:05;;;;;;;11.55;3.97;;;;;;;19.92;47.55;102395.72;5054511;28;20474;-66
2022/10/19 08:03:30;;;;;;;7.57;3.97;;;;;;;20.08;47.15;102395.03;5054604;28;20064;-66
2022/10/19 08:06:04;;;;;;;6.65;3.63;;;;;;;20.24;46.74;102396.09;5036860;28;20069;-66
2022/10/19 08:08:30;;;;;;;12.65;4.22;;;;;;;20.37;47.09;102389.44;5037565;28;20482;-67
2022/10/19 08:10:55;;;;;;;6.75;3.67;;;;;;;20.53;46.72;102392.31;5037640;28;20478;-68
2022/10/19 08:13:21;;;;;;;12.45;3.50;;;;;;;20.68;46.98;102398.94;5054356;28;20028;-66
2022/10/19 08:15:46;;;;;;;13.15;3.63;;;;;;;20.76;46.61;102382.66;5054511;28;20025;-66
2022/10/19 08:18:12;;;;;;;10.40;3.50;;;;;;;20.88;46.46;102381.41;5054213;28;20473;-67
2022/10/19 08:20:40;;;;;;;10.43;4.43;;;;;;;21.20;46.97;102400.72;5054241;28;20078;-66
2022/10/19 08:23:05;;;;;;;9.32;3.30;;;;;;;21.38;46.03;102401.53;5054222;28;20025;-66
2022/10/19 08:25:31;;;;;;;9.70;3.65;;;;;;;21.52;45.73;102394.63;5054041;28;20556;-66
2022/10/19 08:27:56;;;;;;;13.35;3.80;;;;;;;21.69;46.12;102395.56;5053762;28;20029;-67
2022/10/19 08:30:21;;;;;;;10.23;3.42;;;;;;;21.81;45.79;102394.25;5053880;28;20474;-67
2022/10/19 08:32:47;;;;;;;8.68;3.72;;;;;;;21.94;45.49;102389.25;5053994;28;20036;-69
2022/10/19 08:35:13;;;;;;;11.23;3.75;;;;;;;22.16;44.99;102379.56;5053862;28;20079;-66
2022/10/19 08:37:38;;;;;;;10.55;3.70;;;;;;;22.29;45.26;102372.59;5054031;28;20116;-67
2022/10/19 08:40:04;;;;;;;12.45;4.38;;;;;;;22.42;45.36;102372.94;5053697;28;20037;-67
2022/10/19 08:42:57;;;;;;;7.60;3.63;;;;;;;22.55;44.40;102364.28;5036007;28;20036;-67
2022/10/19 08:45:29;;;;;;;;;;;;;;;22.78;45.12;102373.50;5054558;28;20447;-68
2022/10/19 08:48:02;;;;;;;7.90;2.85;;;;;;;22.95;45.09;102369.75;5035874;28;19909;-66
2022/10/19 08:50:38;;;;;;;9.10;3.33;;;;;;;23.12;44.63;102365.13;5035939;28;20107;-67
2022/10/19 08:53:13;;;;;;;8.98;3.53;;;;;;;23.31;44.23;102362.00;5035812;28;20025;-67
2022/10/19 08:56:04;;;;;;;9.38;3.05;;;;;;;23.53;44.32;102374.97;5053621;28;20032;-67
2022/10/19 08:58:39;;;;;;;12.40;3.40;;;;;;;23.65;43.90;102365.34;5035550;28;20021;-67
2022/10/19 09:01:27;;;;;;;9.68;3.25;;;;;;;23.75;43.58;102360.53;5032173;28;20128;-67
2022/10/19 09:04:03;;;;;;;9.93;3.20;;;;;;;23.83;43.56;102359.63;5033590;28;20017;-67
2022/10/19 09:06:35;;;;;;;13.38;3.70;;;;;;;24.08;43.54;102352.13;5033493;28;20590;-67
2022/10/19 09:09:01;;;;;;;12.68;3.30;;;;;;;24.29;43.21;102349.63;5032323;28;20032;-67
2022/10/19 09:11:30;;;;;;;8.65;2.80;;;;;;;24.55;42.42;102350.13;5033367;28;20029;-67
2022/10/19 09:14:04;;;;;;;10.05;3.33;;;;;;;25.04;42.20;102344.22;5032146;28;20368;-65
2022/10/19 09:16:30;;;;;;;8.02;2.45;;;;;;;26.47;39.95;102341.69;5033627;28;20037;-65
2022/10/19 09:18:55;;;;;;;9.88;2.92;;;;;;;27.09;38.24;102345.44;5033623;28;20147;-65
2022/10/19 09:21:24;;;;;;;7.63;2.90;;;;;;;26.73;39.12;102333.69;5033295;28;20025;-65
2022/10/19 09:24:03;;;;;;;7.97;3.33;;;;;;;26.63;39.40;102333.19;5032131;28;20032;-65
2022/10/19 09:26:31;;;;;;;7.00;3.08;;;;;;;26.63;38.91;102333.19;5032061;28;20048;-65
2022/10/19 09:29:06;;;;;;;6.28;3.35;;;;;;;26.82;38.70;102348.19;5032009;28;20033;-65
2022/10/19 09:31:33;;;;;;;10.30;3.13;;;;;;;26.90;38.78;102337.88;5033108;28;20391;-64
2022/10/19 09:34:14;;;;;;;9.80;3.05;;;;;;;27.05;38.08;102335.88;5031807;28;20032;-66
2022/10/19 09:36:42;;;;;;;11.38;3.17;;;;;;;27.21;37.83;102331.97;5031631;28;20057;-64
2022/10/19 09:39:12;;;;;;;8.82;2.90;;;;;;;27.41;37.81;102334.88;5031699;28;20021;-65
2022/10/19 09:41:46;;;;;;;9.57;3.33;;;;;;;27.65;37.29;102329.72;5034400;28;20040;-65
2022/10/19 09:44:12;;;;;;;7.53;2.97;;;;;;;27.93;37.64;102331.50;5035754;28;20067;-64
2022/10/19 09:46:50;;;;;;;7.97;2.85;;;;;;;28.07;37.04;102331.38;5035988;28;20021;-65
2022/10/19 09:49:17;;;;;;;9.50;3.47;;;;;;;28.29;36.69;102332.06;5037054;28;20032;-65
2022/10/19 09:51:51;;;;;;;7.45;3.22;;;;;;;28.48;36.68;102331.25;5035910;28;20030;-65
2022/10/19 09:54:43;;;;;;;8.95;2.60;;;;;;;28.70;37.11;102331.94;5037260;28;20037;-65
2022/10/19 09:57:19;;;;;;;8.45;3.58;;;;;;;28.78;35.96;102334.50;5032223;28;20060;-65
2022/10/19 09:59:50;;;;;;;8.38;2.90;;;;;;;28.81;36.89;102331.31;5035756;28;20033;-65
2022/10/19 10:02:18;;;;;;;7.68;3.83;;;;;;;28.82;36.16;102327.47;5055014;28;20140;-65
2022/10/19 10:04:54;;;;;;;7.15;3.53;;;;;;;28.97;36.23;102325.34;5056735;28;20071;-65
2022/10/19 10:07:34;;;;;;;5.82;3.85;;;;;;;29.23;35.71;102330.03;5038980;28;20021;-65
2022/10/19 10:09:59;;;;;;;9.35;3.75;;;;;;;29.44;35.29;102321.44;5039180;28;20028;-65
2022/10/19 10:12:25;;;;;;;8.85;4.28;;;;;;;29.45;35.92;102318.47;5056986;28;20560;-65
2022/10/19 10:14:52;;;;;;;8.48;3.90;;;;;;;29.40;35.22;102321.03;5056569;28;20037;-65
2022/10/19 10:17:20;;;;;;;8.60;4.00;;;;;;;29.48;35.38;102314.44;5056689;28;20510;-65
2022/10/19 10:20:02;;;;;;;8.88;3.97;;;;;;;29.53;34.73;102311.00;5038582;28;20032;-65
2022/10/19 10:22:31;;;;;;;12.13;4.32;;;;;;;29.54;34.87;102310.78;5038739;28;20070;-65
2022/10/19 10:24:57;;;;;;;7.63;4.72;;;;;;;29.62;35.33;102312.47;5056362;28;20029;-65
2022/10/19 10:27:36;;;;;;;10.20;5.22;;;;;;;29.59;34.86;102305.47;5038458;28;20029;-65
2022/10/19 10:30:08;;;;;;;8.55;4.82;;;;;;;29.61;34.83;102299.72;5056271;28;20133;-65
2022/10/19 10:32:38;;;;;;;13.73;5.50;;;;;;;29.74;34.35;102306.03;5056092;28;20025;-65
2022/10/19 10:35:07;;;;;;;9.55;4.82;;;;;;;29.89;34.11;102298.34;5038480;28;20082;-64
2022/10/19 10:37:40;;;;;;;8.35;4.47;;;;;;;29.99;34.59;102297.84;5038118;28;20036;-65
2022/10/19 10:40:18;;;;;;;11.63;5.60;;;;;;;30.19;34.40;102298.56;5038517;28;20446;-65
2022/10/19 10:42:45;;;;;;;12.45;5.85;;;;;;;30.15;34.58;102302.84;5056252;28;20437;-65
2022/10/19 10:45:22;;;;;;;11.98;6.35;;;;;;;30.22;34.46;102303.66;5038283;28;20098;-65
2022/10/19 10:47:47;;;;;;;13.48;6.22;;;;;;;30.01;34.75;102287.44;5038130;28;20028;-65
2022/10/19 10:50:19;;;;;;;11.80;6.82;;;;;;;29.87;34.86;102294.09;5021892;28;20115;-65
2022/10/19 10:53:43;;;;;;;13.65;7.57;;;;;;;30.08;34.26;102285.47;5055678;28;20020;-65
2022/10/19 10:56:30;;;;;;;13.70;7.78;;;;;;;30.18;34.17;102285.81;5033728;28;20045;-65
2022/10/19 10:58:59;;;;;;;13.98;7.97;;;;;;;30.13;34.15;102285.63;5056051;28;20445;-65
2022/10/19 11:01:32;;;;;;;14.70;8.40;;;;;;;30.13;34.14;102282.03;5034617;28;20045;-65
2022/10/19 11:04:08;;;;;;;15.43;8.23;;;;;;;30.11;34.45;102273.97;5034893;28;20467;-65
2022/10/19 11:06:38;;;;;;;19.63;8.70;;;;;;;30.11;34.11;102268.44;5034516;28;20025;-65
2022/10/19 11:09:18;;;;;;;13.45;7.68;;;;;;;30.09;34.06;102265.06;5034507;28;20025;-65
2022/10/19 11:11:45;;;;;;;17.17;9.02;;;;;;;30.11;33.99;102257.38;5034452;28;20021;-65
2022/10/19 11:14:13;;;;;;;20.50;8.10;;;;;;;30.07;34.18;102256.13;5035585;28;20041;-65
2022/10/19 11:16:44;;;;;;;14.15;8.02;;;;;;;30.03;34.48;102252.13;5035476;28;20390;-65
2022/10/19 11:19:23;;;;;;;19.95;8.70;;;;;;;29.87;34.66;102238.84;5035431;28;20040;-65
2022/10/19 11:22:42;;;;;;;15.60;8.57;;;;;;;29.82;34.00;102238.63;5034244;28;20489;-65
2022/10/19 11:26:05;;;;;;;15.38;8.63;;;;;;;29.81;34.35;102239.72;4974433;28;20105;-65
2022/10/19 11:28:51;;;;;;;17.15;9.07;;;;;;;29.74;34.25;102230.56;4955176;29;20430;-64
2022/10/19 11:31:31;;;;;;;17.00;8.07;;;;;;;29.59;34.46;102227.28;4955060;29;20034;-64
2022/10/19 11:34:25;;;;;;;20.48;8.32;;;;;;;29.43;34.04;102221.16;4955096;29;20042;-65
2022/10/19 11:37:21;;;;;;;20.02;8.20;;;;;;;29.17;34.50;102214.91;4954730;29;20043;-64